sensor_id;sensor_type;location;lat;lon;timestamp;pressure;altitude;pressure_sealevel;temperature;humidity
4024;BME280;2026;51.002;13.668;2022-07-29T00:04:02;99262.56;;;14.59;48.99
4024;BME280;2026;51.002;13.668;2022-07-29T00:09:05;99265.75;;;14.61;48.95
4024;BME280;2026;51.002;13.668;2022-07-29T00:14:09;99257.78;;;14.56;49.28
4024;BME280;2026;51.002;13.668;2022-07-29T00:19:13;99263.84;;;14.56;49.40
4024;BME280;2026;51.002;13.668;2022-07-29T00:24:16;99251.88;;;14.48;49.81
4024;BME280;2026;51.002;13.668;2022-07-29T00:29:21;99232.03;;;14.29;50.05
4024;BME280;2026;51.002;13.668;2022-07-29T00:34:39;99233.56;;;14.25;49.98
4024;BME280;2026;51.002;13.668;2022-07-29T00:40:00;99230.94;;;14.07;50.91
4024;BME280;2026;51.002;13.668;2022-07-29T00:45:05;99234.25;;;13.98;50.78
4024;BME280;2026;51.002;13.668;2022-07-29T00:50:10;99229.03;;;14.03;50.56
4024;BME280;2026;51.002;13.668;2022-07-29T00:55:15;99226.22;;;13.92;51.04
4024;BME280;2026;51.002;13.668;2022-07-29T01:00:21;99202.16;;;13.89;51.24
4024;BME280;2026;51.002;13.668;2022-07-29T01:05:26;99199.06;;;13.63;51.91
4024;BME280;2026;51.002;13.668;2022-07-29T01:10:50;99206.94;;;13.58;52.04
4024;BME280;2026;51.002;13.668;2022-07-29T01:15:59;99203.50;;;13.57;52.10
4024;BME280;2026;51.002;13.668;2022-07-29T01:21:22;99200.84;;;13.57;52.44
4024;BME280;2026;51.002;13.668;2022-07-29T01:26:41;99187.88;;;13.56;52.39
4024;BME280;2026;51.002;13.668;2022-07-29T01:31:51;99186.91;;;13.62;52.00
4024;BME280;2026;51.002;13.668;2022-07-29T01:37:06;99188.19;;;13.59;52.20
4024;BME280;2026;51.002;13.668;2022-07-29T01:42:15;99180.44;;;13.52;53.00
4024;BME280;2026;51.002;13.668;2022-07-29T01:47:28;99182.91;;;13.42;53.33
4024;BME280;2026;51.002;13.668;2022-07-29T01:52:41;99180.97;;;13.20;54.00
4024;BME280;2026;51.002;13.668;2022-07-29T01:57:48;99179.22;;;13.26;54.25
4024;BME280;2026;51.002;13.668;2022-07-29T02:02:53;99181.69;;;13.33;54.11
4024;BME280;2026;51.002;13.668;2022-07-29T02:07:58;99174.97;;;13.25;54.01
4024;BME280;2026;51.002;13.668;2022-07-29T02:13:03;99174.25;;;13.12;54.39
4024;BME280;2026;51.002;13.668;2022-07-29T02:18:11;99170.47;;;13.25;54.02
4024;BME280;2026;51.002;13.668;2022-07-29T02:23:19;99162.41;;;13.32;53.95
4024;BME280;2026;51.002;13.668;2022-07-29T02:28:23;99163.78;;;13.18;54.34
4024;BME280;2026;51.002;13.668;2022-07-29T02:33:29;99166.00;;;13.26;53.75
4024;BME280;2026;51.002;13.668;2022-07-29T02:38:35;99167.50;;;13.22;54.19
4024;BME280;2026;51.002;13.668;2022-07-29T02:43:56;99163.06;;;13.22;54.71
4024;BME280;2026;51.002;13.668;2022-07-29T02:49:07;99163.53;;;12.73;56.38
4024;BME280;2026;51.002;13.668;2022-07-29T02:54:20;99156.59;;;12.55;56.71
4024;BME280;2026;51.002;13.668;2022-07-29T02:59:26;99156.88;;;12.70;56.42
4024;BME280;2026;51.002;13.668;2022-07-29T03:04:32;99163.75;;;13.01;55.93
4024;BME280;2026;51.002;13.668;2022-07-29T03:09:36;99152.63;;;12.98;55.38
4024;BME280;2026;51.002;13.668;2022-07-29T03:14:40;99155.19;;;13.10;55.52
4024;BME280;2026;51.002;13.668;2022-07-29T03:19:45;99153.22;;;13.18;54.94
4024;BME280;2026;51.002;13.668;2022-07-29T03:24:48;99160.56;;;13.16;54.94
4024;BME280;2026;51.002;13.668;2022-07-29T03:29:51;99161.81;;;12.96;55.76
4024;BME280;2026;51.002;13.668;2022-07-29T03:34:55;99153.44;;;13.16;55.77
4024;BME280;2026;51.002;13.668;2022-07-29T03:40:00;99144.00;;;13.20;55.18
4024;BME280;2026;51.002;13.668;2022-07-29T03:45:07;99138.56;;;13.27;54.95
4024;BME280;2026;51.002;13.668;2022-07-29T03:50:14;99142.78;;;13.28;55.51
4024;BME280;2026;51.002;13.668;2022-07-29T03:55:17;99143.13;;;13.15;56.03
4024;BME280;2026;51.002;13.668;2022-07-29T04:00:21;99148.16;;;12.99;56.17
4024;BME280;2026;51.002;13.668;2022-07-29T04:05:27;99146.06;;;13.18;55.89
4024;BME280;2026;51.002;13.668;2022-07-29T04:10:29;99149.66;;;13.29;55.53
4024;BME280;2026;51.002;13.668;2022-07-29T04:15:36;99146.06;;;13.35;55.51
4024;BME280;2026;51.002;13.668;2022-07-29T04:20:40;99150.41;;;13.59;56.25
4024;BME280;2026;51.002;13.668;2022-07-29T04:25:43;99144.84;;;13.60;55.65
4024;BME280;2026;51.002;13.668;2022-07-29T04:30:46;99148.00;;;13.74;55.83
4024;BME280;2026;51.002;13.668;2022-07-29T04:35:51;99155.00;;;13.68;55.63
4024;BME280;2026;51.002;13.668;2022-07-29T04:40:56;99153.22;;;13.35;56.92
4024;BME280;2026;51.002;13.668;2022-07-29T04:45:59;99156.63;;;13.70;55.02
4024;BME280;2026;51.002;13.668;2022-07-29T04:51:04;99156.22;;;14.17;56.44
4024;BME280;2026;51.002;13.668;2022-07-29T04:56:07;99149.06;;;13.96;55.07
4024;BME280;2026;51.002;13.668;2022-07-29T05:01:10;99147.22;;;14.63;54.01
4024;BME280;2026;51.002;13.668;2022-07-29T05:06:14;99135.47;;;15.95;50.70
4024;BME280;2026;51.002;13.668;2022-07-29T05:11:17;99146.22;;;16.16;49.86
4024;BME280;2026;51.002;13.668;2022-07-29T05:16:23;99142.91;;;16.77;48.95
4024;BME280;2026;51.002;13.668;2022-07-29T05:21:27;99137.34;;;16.89;48.38
4024;BME280;2026;51.002;13.668;2022-07-29T05:26:30;99144.56;;;17.15;48.97
4024;BME280;2026;51.002;13.668;2022-07-29T05:31:33;99143.16;;;17.74;46.81
4024;BME280;2026;51.002;13.668;2022-07-29T05:36:38;99144.81;;;16.82;47.53
4024;BME280;2026;51.002;13.668;2022-07-29T05:41:41;99146.06;;;15.90;50.34
4024;BME280;2026;51.002;13.668;2022-07-29T05:46:44;99148.59;;;15.69;50.28
4024;BME280;2026;51.002;13.668;2022-07-29T05:51:51;99146.81;;;16.28;49.70
4024;BME280;2026;51.002;13.668;2022-07-29T05:56:54;99141.47;;;16.23;49.32
4024;BME280;2026;51.002;13.668;2022-07-29T06:01:57;99150.66;;;16.05;49.90
4024;BME280;2026;51.002;13.668;2022-07-29T06:07:02;99155.00;;;16.26;49.34
4024;BME280;2026;51.002;13.668;2022-07-29T06:12:05;99151.03;;;16.29;49.82
4024;BME280;2026;51.002;13.668;2022-07-29T06:17:08;99150.09;;;16.77;48.55
4024;BME280;2026;51.002;13.668;2022-07-29T06:22:16;99147.72;;;16.91;48.76
4024;BME280;2026;51.002;13.668;2022-07-29T06:27:19;99143.72;;;16.78;48.89
4024;BME280;2026;51.002;13.668;2022-07-29T06:32:22;99152.50;;;16.84;48.96
4024;BME280;2026;51.002;13.668;2022-07-29T06:37:29;99158.91;;;17.08;48.68
4024;BME280;2026;51.002;13.668;2022-07-29T06:42:34;99158.38;;;17.58;48.25
4024;BME280;2026;51.002;13.668;2022-07-29T06:47:37;99170.28;;;17.82;47.19
4024;BME280;2026;51.002;13.668;2022-07-29T06:52:42;99166.09;;;17.44;48.32
4024;BME280;2026;51.002;13.668;2022-07-29T06:57:45;99166.88;;;17.66;47.52
4024;BME280;2026;51.002;13.668;2022-07-29T07:02:51;99158.88;;;18.47;45.89
4024;BME280;2026;51.002;13.668;2022-07-29T07:07:56;99163.94;;;18.89;44.86
4024;BME280;2026;51.002;13.668;2022-07-29T07:12:59;99162.78;;;19.05;44.82
4024;BME280;2026;51.002;13.668;2022-07-29T07:18:02;99163.97;;;19.23;45.46
4024;BME280;2026;51.002;13.668;2022-07-29T07:23:07;99166.28;;;19.35;44.38
4024;BME280;2026;51.002;13.668;2022-07-29T07:28:10;99166.06;;;19.32;44.86
4024;BME280;2026;51.002;13.668;2022-07-29T07:33:13;99169.66;;;19.17;45.23
4024;BME280;2026;51.002;13.668;2022-07-29T07:38:18;99163.19;;;20.06;44.81
4024;BME280;2026;51.002;13.668;2022-07-29T07:43:21;99158.53;;;20.56;41.57
4024;BME280;2026;51.002;13.668;2022-07-29T07:48:24;99155.16;;;19.82;43.67
4024;BME280;2026;51.002;13.668;2022-07-29T07:53:29;99151.53;;;20.41;42.44
4024;BME280;2026;51.002;13.668;2022-07-29T07:58:33;99144.84;;;20.82;42.22
4024;BME280;2026;51.002;13.668;2022-07-29T08:03:37;99138.66;;;21.33;41.96
4024;BME280;2026;51.002;13.668;2022-07-29T08:08:41;99129.28;;;22.06;41.34
4024;BME280;2026;51.002;13.668;2022-07-29T08:13:44;99118.88;;;21.77;40.25
4024;BME280;2026;51.002;13.668;2022-07-29T08:18:49;99126.72;;;21.12;40.43
4024;BME280;2026;51.002;13.668;2022-07-29T08:23:54;99124.09;;;22.61;38.55
4024;BME280;2026;51.002;13.668;2022-07-29T08:29:17;99116.69;;;21.65;39.90
4024;BME280;2026;51.002;13.668;2022-07-29T08:34:20;99125.13;;;22.51;38.10
4024;BME280;2026;51.002;13.668;2022-07-29T08:39:30;99121.78;;;23.45;37.13
4024;BME280;2026;51.002;13.668;2022-07-29T08:44:33;99113.94;;;22.94;37.56
4024;BME280;2026;51.002;13.668;2022-07-29T08:49:37;99117.63;;;23.30;37.00
4024;BME280;2026;51.002;13.668;2022-07-29T08:54:43;99125.59;;;23.94;36.28
4024;BME280;2026;51.002;13.668;2022-07-29T08:59:48;99111.47;;;25.38;34.07
4024;BME280;2026;51.002;13.668;2022-07-29T09:04:54;99124.56;;;24.39;34.34
4024;BME280;2026;51.002;13.668;2022-07-29T09:10:01;99103.13;;;25.22;32.91
4024;BME280;2026;51.002;13.668;2022-07-29T09:15:04;99098.44;;;25.79;33.38
4024;BME280;2026;51.002;13.668;2022-07-29T09:20:09;99086.25;;;25.73;33.18
4024;BME280;2026;51.002;13.668;2022-07-29T09:25:15;99090.44;;;25.31;33.56
4024;BME280;2026;51.002;13.668;2022-07-29T09:30:34;99086.84;;;25.57;33.42
4024;BME280;2026;51.002;13.668;2022-07-29T09:35:37;99083.91;;;25.41;32.77
4024;BME280;2026;51.002;13.668;2022-07-29T09:40:55;99085.22;;;26.16;32.05
4024;BME280;2026;51.002;13.668;2022-07-29T09:46:10;99081.66;;;25.43;32.58
4024;BME280;2026;51.002;13.668;2022-07-29T09:51:20;99089.22;;;25.02;34.03
4024;BME280;2026;51.002;13.668;2022-07-29T09:56:41;99081.75;;;26.16;32.78
4024;BME280;2026;51.002;13.668;2022-07-29T10:01:44;99080.63;;;26.72;31.20
4024;BME280;2026;51.002;13.668;2022-07-29T10:06:59;99076.81;;;27.56;30.08
4024;BME280;2026;51.002;13.668;2022-07-29T10:12:11;99067.63;;;28.39;28.91
4024;BME280;2026;51.002;13.668;2022-07-29T10:17:15;99068.66;;;28.63;28.05
4024;BME280;2026;51.002;13.668;2022-07-29T10:22:20;99065.06;;;28.02;29.33
4024;BME280;2026;51.002;13.668;2022-07-29T10:27:45;99064.28;;;27.77;29.20
4024;BME280;2026;51.002;13.668;2022-07-29T10:32:57;99064.06;;;27.69;29.44
4024;BME280;2026;51.002;13.668;2022-07-29T10:38:21;99062.50;;;27.68;28.44
4024;BME280;2026;51.002;13.668;2022-07-29T10:43:33;99059.81;;;27.31;29.58
4024;BME280;2026;51.002;13.668;2022-07-29T10:49:08;99050.38;;;27.50;29.31
4024;BME280;2026;51.002;13.668;2022-07-29T10:54:12;99045.31;;;27.36;29.56
4024;BME280;2026;51.002;13.668;2022-07-29T10:59:26;99054.28;;;27.52;29.37
4024;BME280;2026;51.002;13.668;2022-07-29T11:04:59;99046.19;;;26.90;29.65
4024;BME280;2026;51.002;13.668;2022-07-29T11:10:22;99052.84;;;26.37;31.09
4024;BME280;2026;51.002;13.668;2022-07-29T11:15:52;99050.91;;;27.18;29.58
4024;BME280;2026;51.002;13.668;2022-07-29T11:20:56;99043.25;;;28.52;28.19
4024;BME280;2026;51.002;13.668;2022-07-29T11:26:17;99042.03;;;28.65;28.31
4024;BME280;2026;51.002;13.668;2022-07-29T11:31:36;99031.78;;;28.14;28.18
4024;BME280;2026;51.002;13.668;2022-07-29T11:37:20;99033.66;;;28.42;28.22
4024;BME280;2026;51.002;13.668;2022-07-29T11:42:40;99033.66;;;28.26;28.18
4024;BME280;2026;51.002;13.668;2022-07-29T11:47:54;99036.63;;;27.67;29.01
4024;BME280;2026;51.002;13.668;2022-07-29T11:53:20;99032.00;;;27.05;29.54
4024;BME280;2026;51.002;13.668;2022-07-29T11:58:23;99026.84;;;27.00;29.63
4024;BME280;2026;51.002;13.668;2022-07-29T12:03:28;99032.94;;;27.22;30.37
4024;BME280;2026;51.002;13.668;2022-07-29T12:08:40;99022.78;;;27.44;29.55
4024;BME280;2026;51.002;13.668;2022-07-29T12:13:45;99026.41;;;27.48;29.27
4024;BME280;2026;51.002;13.668;2022-07-29T12:18:58;99027.94;;;27.86;29.33
4024;BME280;2026;51.002;13.668;2022-07-29T12:24:02;99011.66;;;28.56;27.86
4024;BME280;2026;51.002;13.668;2022-07-29T12:29:15;99012.78;;;27.57;29.51
4024;BME280;2026;51.002;13.668;2022-07-29T12:34:36;99013.59;;;27.32;30.10
4024;BME280;2026;51.002;13.668;2022-07-29T12:39:39;99010.13;;;27.73;29.41
4024;BME280;2026;51.002;13.668;2022-07-29T12:44:46;99007.84;;;28.00;29.34
4024;BME280;2026;51.002;13.668;2022-07-29T12:50:07;98995.63;;;28.06;29.07
4024;BME280;2026;51.002;13.668;2022-07-29T12:55:11;99007.66;;;27.80;29.59
4024;BME280;2026;51.002;13.668;2022-07-29T13:00:15;98998.84;;;27.83;29.06
4024;BME280;2026;51.002;13.668;2022-07-29T13:05:19;98994.31;;;27.59;29.37
4024;BME280;2026;51.002;13.668;2022-07-29T13:10:22;99000.41;;;27.97;29.37
4024;BME280;2026;51.002;13.668;2022-07-29T13:15:26;98986.47;;;27.95;29.13
4024;BME280;2026;51.002;13.668;2022-07-29T13:20:31;98993.00;;;27.94;29.16
4024;BME280;2026;51.002;13.668;2022-07-29T13:25:34;98991.47;;;28.09;29.29
4024;BME280;2026;51.002;13.668;2022-07-29T13:30:42;98989.47;;;27.52;30.00
4024;BME280;2026;51.002;13.668;2022-07-29T13:35:47;98977.94;;;27.68;29.19
4024;BME280;2026;51.002;13.668;2022-07-29T13:40:50;98981.19;;;28.14;29.24
4024;BME280;2026;51.002;13.668;2022-07-29T13:45:53;98973.69;;;28.52;28.22
4024;BME280;2026;51.002;13.668;2022-07-29T13:50:58;98971.47;;;27.97;28.52
4024;BME280;2026;51.002;13.668;2022-07-29T13:56:01;98977.13;;;27.92;29.16
4024;BME280;2026;51.002;13.668;2022-07-29T14:01:04;98965.41;;;28.61;28.23
4024;BME280;2026;51.002;13.668;2022-07-29T14:06:09;98964.78;;;28.84;27.17
4024;BME280;2026;51.002;13.668;2022-07-29T14:11:12;98947.47;;;29.21;27.13
4024;BME280;2026;51.002;13.668;2022-07-29T14:16:15;98951.63;;;29.34;26.40
4024;BME280;2026;51.002;13.668;2022-07-29T14:21:20;98947.69;;;29.32;27.07
4024;BME280;2026;51.002;13.668;2022-07-29T14:26:23;98937.53;;;28.93;27.17
4024;BME280;2026;51.002;13.668;2022-07-29T14:31:28;98942.41;;;28.23;27.76
4024;BME280;2026;51.002;13.668;2022-07-29T14:36:32;98948.53;;;28.36;27.83
4024;BME280;2026;51.002;13.668;2022-07-29T14:41:36;98953.47;;;28.62;27.55
4024;BME280;2026;51.002;13.668;2022-07-29T14:46:39;98949.50;;;28.76;27.07
4024;BME280;2026;51.002;13.668;2022-07-29T14:51:49;98952.81;;;29.17;26.52
4024;BME280;2026;51.002;13.668;2022-07-29T14:56:52;98960.38;;;29.47;26.21
4024;BME280;2026;51.002;13.668;2022-07-29T15:01:58;98954.03;;;29.75;25.45
4024;BME280;2026;51.002;13.668;2022-07-29T15:07:04;98949.69;;;28.83;26.37
4024;BME280;2026;51.002;13.668;2022-07-29T15:12:07;98949.13;;;29.45;25.93
4024;BME280;2026;51.002;13.668;2022-07-29T15:17:12;98947.41;;;29.37;26.22
4024;BME280;2026;51.002;13.668;2022-07-29T15:22:16;98946.53;;;28.81;26.93
4024;BME280;2026;51.002;13.668;2022-07-29T15:27:19;98946.66;;;27.67;28.33
4024;BME280;2026;51.002;13.668;2022-07-29T15:32:23;98935.16;;;27.41;28.94
4024;BME280;2026;51.002;13.668;2022-07-29T15:37:27;98936.84;;;27.33;29.13
4024;BME280;2026;51.002;13.668;2022-07-29T15:42:50;98927.41;;;27.15;30.05
4024;BME280;2026;51.002;13.668;2022-07-29T15:47:53;98937.66;;;26.72;30.83
4024;BME280;2026;51.002;13.668;2022-07-29T15:52:58;98921.81;;;26.83;30.32
4024;BME280;2026;51.002;13.668;2022-07-29T15:58:01;98913.38;;;26.97;29.93
4024;BME280;2026;51.002;13.668;2022-07-29T16:03:05;98913.59;;;26.91;30.60
4024;BME280;2026;51.002;13.668;2022-07-29T16:08:09;98918.66;;;26.81;30.84
4024;BME280;2026;51.002;13.668;2022-07-29T16:13:12;98913.00;;;26.48;30.89
4024;BME280;2026;51.002;13.668;2022-07-29T16:18:19;98906.19;;;26.76;30.60
4024;BME280;2026;51.002;13.668;2022-07-29T16:23:32;98899.63;;;26.40;31.01
4024;BME280;2026;51.002;13.668;2022-07-29T16:28:35;98903.00;;;26.49;31.16
4024;BME280;2026;51.002;13.668;2022-07-29T16:33:38;98908.78;;;26.60;31.34
4024;BME280;2026;51.002;13.668;2022-07-29T16:38:57;98902.44;;;26.43;31.16
4024;BME280;2026;51.002;13.668;2022-07-29T16:44:00;98903.97;;;26.32;31.17
4024;BME280;2026;51.002;13.668;2022-07-29T16:49:03;98900.72;;;26.26;31.33
4024;BME280;2026;51.002;13.668;2022-07-29T16:54:08;98903.28;;;26.22;31.92
4024;BME280;2026;51.002;13.668;2022-07-29T16:59:11;98908.13;;;26.17;32.08
4024;BME280;2026;51.002;13.668;2022-07-29T17:04:14;98905.19;;;26.09;32.68
4024;BME280;2026;51.002;13.668;2022-07-29T17:09:19;98891.97;;;25.95;32.65
4024;BME280;2026;51.002;13.668;2022-07-29T17:14:24;98897.38;;;25.95;33.11
4024;BME280;2026;51.002;13.668;2022-07-29T17:19:28;98898.50;;;25.94;33.28
4024;BME280;2026;51.002;13.668;2022-07-29T17:24:33;98892.25;;;25.81;33.26
4024;BME280;2026;51.002;13.668;2022-07-29T17:29:36;98894.94;;;25.81;33.66
4024;BME280;2026;51.002;13.668;2022-07-29T17:34:41;98894.38;;;25.76;34.07
4024;BME280;2026;51.002;13.668;2022-07-29T17:39:45;98892.94;;;25.36;34.63
4024;BME280;2026;51.002;13.668;2022-07-29T17:44:49;98895.97;;;25.34;34.59
4024;BME280;2026;51.002;13.668;2022-07-29T17:49:52;98902.47;;;25.33;34.90
4024;BME280;2026;51.002;13.668;2022-07-29T17:54:56;98889.53;;;25.18;36.38
4024;BME280;2026;51.002;13.668;2022-07-29T17:59:59;98885.94;;;25.13;37.04
4024;BME280;2026;51.002;13.668;2022-07-29T18:05:22;98890.78;;;24.99;37.20
4024;BME280;2026;51.002;13.668;2022-07-29T18:10:26;98890.88;;;24.81;38.57
4024;BME280;2026;51.002;13.668;2022-07-29T18:15:30;98896.63;;;24.71;39.18
4024;BME280;2026;51.002;13.668;2022-07-29T18:20:33;98903.31;;;24.65;39.33
4024;BME280;2026;51.002;13.668;2022-07-29T18:25:37;98907.00;;;24.51;39.49
4024;BME280;2026;51.002;13.668;2022-07-29T18:30:40;98906.38;;;24.37;39.34
4024;BME280;2026;51.002;13.668;2022-07-29T18:35:44;98919.22;;;24.22;39.72
4024;BME280;2026;51.002;13.668;2022-07-29T18:40:49;98902.47;;;24.08;40.41
4024;BME280;2026;51.002;13.668;2022-07-29T18:45:52;98902.81;;;23.97;40.85
4024;BME280;2026;51.002;13.668;2022-07-29T18:50:55;98901.59;;;23.86;41.20
4024;BME280;2026;51.002;13.668;2022-07-29T18:56:00;98900.75;;;23.59;41.59
4024;BME280;2026;51.002;13.668;2022-07-29T19:01:04;98911.03;;;23.48;42.09
4024;BME280;2026;51.002;13.668;2022-07-29T19:06:07;98911.97;;;23.34;42.55
4024;BME280;2026;51.002;13.668;2022-07-29T19:11:11;98935.63;;;23.23;43.06
4024;BME280;2026;51.002;13.668;2022-07-29T19:16:14;98934.03;;;23.22;42.94
4024;BME280;2026;51.002;13.668;2022-07-29T19:21:19;98934.28;;;23.03;43.87
4024;BME280;2026;51.002;13.668;2022-07-29T19:26:23;98945.53;;;23.05;43.64
4024;BME280;2026;51.002;13.668;2022-07-29T19:31:27;98939.31;;;23.05;43.65
4024;BME280;2026;51.002;13.668;2022-07-29T19:36:30;98940.78;;;22.71;45.35
4024;BME280;2026;51.002;13.668;2022-07-29T19:41:34;98955.66;;;22.86;44.99
4024;BME280;2026;51.002;13.668;2022-07-29T19:46:38;98955.66;;;22.77;45.11
4024;BME280;2026;51.002;13.668;2022-07-29T19:51:41;98954.47;;;22.60;45.39
4024;BME280;2026;51.002;13.668;2022-07-29T19:56:46;98962.75;;;22.50;45.95
4024;BME280;2026;51.002;13.668;2022-07-29T20:01:50;98969.28;;;22.58;45.91
4024;BME280;2026;51.002;13.668;2022-07-29T20:06:53;98970.00;;;22.49;45.40
4024;BME280;2026;51.002;13.668;2022-07-29T20:12:04;98962.38;;;22.42;46.22
4024;BME280;2026;51.002;13.668;2022-07-29T20:17:07;98964.22;;;22.33;46.28
4024;BME280;2026;51.002;13.668;2022-07-29T20:22:10;98956.91;;;22.25;46.82
4024;BME280;2026;51.002;13.668;2022-07-29T20:27:24;98962.16;;;22.07;46.79
4024;BME280;2026;51.002;13.668;2022-07-29T20:32:27;98959.56;;;22.02;46.27
4024;BME280;2026;51.002;13.668;2022-07-29T20:37:30;98972.69;;;21.90;46.25
4024;BME280;2026;51.002;13.668;2022-07-29T20:42:54;98963.69;;;21.85;45.44
4024;BME280;2026;51.002;13.668;2022-07-29T20:47:57;98964.91;;;21.79;45.49
4024;BME280;2026;51.002;13.668;2022-07-29T20:53:00;98964.84;;;21.70;45.85
4024;BME280;2026;51.002;13.668;2022-07-29T20:58:04;98977.94;;;21.58;46.38
4024;BME280;2026;51.002;13.668;2022-07-29T21:03:07;98969.78;;;21.49;46.30
4024;BME280;2026;51.002;13.668;2022-07-29T21:08:10;98985.06;;;21.35;46.79
4024;BME280;2026;51.002;13.668;2022-07-29T21:13:15;98991.63;;;21.28;46.71
4024;BME280;2026;51.002;13.668;2022-07-29T21:18:18;98971.03;;;21.15;47.44
4024;BME280;2026;51.002;13.668;2022-07-29T21:23:28;98964.28;;;21.03;47.38
4024;BME280;2026;51.002;13.668;2022-07-29T21:28:33;98974.75;;;21.00;48.15
4024;BME280;2026;51.002;13.668;2022-07-29T21:33:42;98972.47;;;20.79;48.53
4024;BME280;2026;51.002;13.668;2022-07-29T21:38:45;98973.44;;;20.36;50.29
4024;BME280;2026;51.002;13.668;2022-07-29T21:43:50;98971.00;;;20.54;49.87
4024;BME280;2026;51.002;13.668;2022-07-29T21:48:55;98967.25;;;20.55;50.03
4024;BME280;2026;51.002;13.668;2022-07-29T21:53:58;98963.41;;;20.61;49.70
4024;BME280;2026;51.002;13.668;2022-07-29T21:59:02;98964.22;;;20.61;50.58
4024;BME280;2026;51.002;13.668;2022-07-29T22:04:10;98971.31;;;20.52;51.03
4024;BME280;2026;51.002;13.668;2022-07-29T22:09:13;98970.09;;;20.44;51.26
4024;BME280;2026;51.002;13.668;2022-07-29T22:14:18;98968.88;;;20.36;51.27
4024;BME280;2026;51.002;13.668;2022-07-29T22:19:21;98970.22;;;20.20;52.43
4024;BME280;2026;51.002;13.668;2022-07-29T22:24:28;98975.00;;;20.04;52.61
4024;BME280;2026;51.002;13.668;2022-07-29T22:29:32;98979.41;;;19.94;53.61
4024;BME280;2026;51.002;13.668;2022-07-29T22:34:35;98970.00;;;19.97;53.03
4024;BME280;2026;51.002;13.668;2022-07-29T22:39:38;98964.19;;;19.95;53.05
4024;BME280;2026;51.002;13.668;2022-07-29T22:44:43;98961.94;;;20.02;52.96
4024;BME280;2026;51.002;13.668;2022-07-29T22:49:46;98954.63;;;20.08;53.09
4024;BME280;2026;51.002;13.668;2022-07-29T22:54:49;98957.09;;;20.04;52.90
4024;BME280;2026;51.002;13.668;2022-07-29T22:59:53;98953.66;;;20.04;53.29
4024;BME280;2026;51.002;13.668;2022-07-29T23:04:56;98955.38;;;19.75;54.18
4024;BME280;2026;51.002;13.668;2022-07-29T23:09:59;98954.84;;;19.73;54.43
4024;BME280;2026;51.002;13.668;2022-07-29T23:15:04;98954.34;;;19.71;53.78
4024;BME280;2026;51.002;13.668;2022-07-29T23:20:08;98987.03;;;19.82;52.47
4024;BME280;2026;51.002;13.668;2022-07-29T23:25:15;98981.00;;;19.95;52.01
4024;BME280;2026;51.002;13.668;2022-07-29T23:30:19;98980.63;;;19.83;52.30
4024;BME280;2026;51.002;13.668;2022-07-29T23:35:24;98991.53;;;20.06;52.83
4024;BME280;2026;51.002;13.668;2022-07-29T23:40:27;98993.31;;;19.91;55.75
4024;BME280;2026;51.002;13.668;2022-07-29T23:45:31;98986.59;;;19.75;57.61
4024;BME280;2026;51.002;13.668;2022-07-29T23:50:49;98992.41;;;19.77;58.70
4024;BME280;2026;51.002;13.668;2022-07-29T23:55:52;98993.56;;;19.51;61.45
